Time,TemperatureF,DewpointF,PressureIn,WindDirection,WindDirectionDegrees,WindSpeedMPH,WindSpeedGustMPH,Humidity,HourlyPrecipIn,Conditions,Clouds,dailyrainin,SoftwareType,DateUTC
2013-04-27 00:06:00,21.6,16.7,29.99,NE,56,13.0,14.0,81,0.00,,,0.00,Wunderground v.1.15,2013-04-27 08:06:00,
2013-04-27 00:16:00,21.9,16.7,29.97,NE,46,15.0,17.0,80,0.00,,,0.00,Wunderground v.1.15,2013-04-27 08:16:00,
2013-04-27 00:25:00,22.4,16.6,29.97,ENE,63,16.0,22.0,78,0.00,,,0.00,Wunderground v.1.15,2013-04-27 08:25:00,
2013-04-27 00:30:00,22.2,16.7,29.99,ENE,59,15.0,18.0,79,0.00,,,0.00,Wunderground v.1.15,2013-04-27 08:30:00,
2013-04-27 00:40:00,22.1,16.9,29.99,East,81,11.0,11.0,80,0.00,,,0.00,Wunderground v.1.15,2013-04-27 08:40:00,
2013-04-27 00:50:00,22.5,16.7,30.00,East,88,12.0,16.0,78,0.00,,,0.00,Wunderground v.1.15,2013-04-27 08:50:00,
2013-04-27 01:00:00,22.4,16.6,30.01,NE,56,11.0,12.0,78,0.00,,,0.00,Wunderground v.1.15,2013-04-27 09:00:00,
2013-04-27 01:10:00,23.3,16.5,30.01,ENE,77,13.0,17.0,75,0.00,,,0.00,Wunderground v.1.15,2013-04-27 09:10:00,
2013-04-27 01:15:00,23.2,16.8,30.01,ENE,73,13.0,17.0,76,0.00,,,0.00,Wunderground v.1.15,2013-04-27 09:15:00,
2013-04-27 01:26:00,22.9,16.8,30.01,East,85,12.0,15.0,77,0.00,,,0.00,Wunderground v.1.15,2013-04-27 09:26:00,
2013-04-27 01:36:00,21.9,16.7,30.02,ENE,73,11.0,18.0,80,0.00,,,0.00,Wunderground v.1.15,2013-04-27 09:36:00,
2013-04-27 01:46:00,22.5,17.0,30.02,ENE,73,11.0,17.0,79,0.00,,,0.00,Wunderground v.1.15,2013-04-27 09:46:00,
2013-04-27 01:55:00,23.5,17.3,30.02,ENE,73,12.0,14.0,77,0.00,,,0.00,Wunderground v.1.15,2013-04-27 09:55:00,
2013-04-27 02:05:00,23.8,17.6,30.02,East,85,13.0,16.0,77,0.00,,,0.00,Wunderground v.1.15,2013-04-27 10:05:00,
2013-04-27 02:15:00,24.7,17.9,30.02,ENE,67,14.0,20.0,75,0.00,,,0.00,Wunderground v.1.15,2013-04-27 10:15:00,
2013-04-27 02:20:00,24.4,17.6,30.02,NE,42,13.0,13.0,75,0.00,,,0.00,Wunderground v.1.15,2013-04-27 10:20:00,
2013-04-27 02:30:00,24.7,17.9,30.03,NE,49,11.0,14.0,75,0.00,,,0.00,Wunderground v.1.15,2013-04-27 10:30:00,
2013-04-27 02:36:00,24.7,17.9,30.03,NNE,18,11.0,14.0,75,0.00,,,0.00,Wunderground v.1.15,2013-04-27 10:36:00,
2013-04-27 02:45:00,24.5,17.7,30.06,NE,36,9.0,11.0,75,0.00,,,0.00,Wunderground v.1.15,2013-04-27 10:45:00,
2013-04-27 02:50:00,24.4,17.6,30.06,NNE,28,6.0,6.0,75,0.00,,,0.00,Wunderground v.1.15,2013-04-27 10:50:00,
2013-04-27 03:01:00,24.5,17.7,30.06,NE,56,8.0,8.0,75,0.00,,,0.00,Wunderground v.1.15,2013-04-27 11:01:00,
2013-04-27 03:11:00,24.5,17.4,30.06,ENE,60,11.0,11.0,74,0.00,,,0.00,Wunderground v.1.15,2013-04-27 11:11:00,
2013-04-27 03:20:00,24.4,17.6,30.06,East,90,12.0,12.0,75,0.00,,,0.00,Wunderground v.1.15,2013-04-27 11:20:00,
2013-04-27 03:30:00,23.8,17.0,30.07,North,352,6.0,6.0,75,0.00,,,0.00,Wunderground v.1.15,2013-04-27 11:30:00,
2013-04-27 03:40:00,22.4,16.0,30.07,North,9,5.0,5.0,76,0.00,,,0.00,Wunderground v.1.15,2013-04-27 11:40:00,
2013-04-27 03:46:00,21.9,15.8,30.08,NNE,25,6.0,6.0,77,0.00,,,0.00,Wunderground v.1.15,2013-04-27 11:46:00,
2013-04-27 03:56:00,21.3,15.2,30.08,NNE,25,3.0,4.0,77,0.00,,,0.00,Wunderground v.1.15,2013-04-27 11:56:00,
2013-04-27 04:06:00,20.8,15.0,30.08,NNE,25,2.0,5.0,78,0.00,,,0.00,Wunderground v.1.15,2013-04-27 12:06:00,
2013-04-27 04:16:00,21.8,15.4,30.09,NE,39,5.0,5.0,76,0.00,,,0.00,Wunderground v.1.15,2013-04-27 12:16:00,
2013-04-27 04:25:00,21.6,14.9,30.09,NE,39,6.0,6.0,75,0.00,,,0.00,Wunderground v.1.15,2013-04-27 12:25:00,
2013-04-27 04:35:00,20.6,14.5,30.08,ENE,60,9.0,12.0,77,0.00,,,0.00,Wunderground v.1.15,2013-04-27 12:35:00,
2013-04-27 04:45:00,20.8,14.4,30.09,NE,50,8.0,11.0,76,0.00,,,0.00,Wunderground v.1.15,2013-04-27 12:45:00,
2013-04-27 04:55:00,20.5,13.8,30.09,NE,50,3.0,5.0,75,0.00,,,0.00,Wunderground v.1.15,2013-04-27 12:55:00,
2013-04-27 05:01:00,19.9,13.6,30.10,ENE,77,3.0,3.0,76,0.00,,,0.00,Wunderground v.1.15,2013-04-27 13:01:00,
2013-04-27 05:11:00,20.6,13.9,30.10,ENE,64,6.0,9.0,75,0.00,,,0.00,Wunderground v.1.15,2013-04-27 13:11:00,
2013-04-27 05:20:00,19.9,13.3,30.10,ENE,73,8.0,9.0,75,0.00,,,0.00,Wunderground v.1.15,2013-04-27 13:20:00,
2013-04-27 05:30:00,19.5,12.9,30.11,East,80,6.0,6.0,75,0.00,,,0.00,Wunderground v.1.15,2013-04-27 13:30:00,
2013-04-27 05:40:00,19.9,12.9,30.11,ENE,71,6.0,6.0,74,0.00,,,0.00,Wunderground v.1.15,2013-04-27 13:40:00,
2013-04-27 05:51:00,20.3,13.3,30.11,ENE,73,9.0,9.0,74,0.00,,,0.00,Wunderground v.1.15,2013-04-27 13:51:00,
2013-04-27 06:00:00,21.3,13.4,30.11,ENE,71,11.0,11.0,71,0.00,,,0.00,Wunderground v.1.15,2013-04-27 14:00:00,
2013-04-27 06:10:00,21.9,13.3,30.11,ENE,61,9.0,9.0,69,0.00,,,0.00,Wunderground v.1.15,2013-04-27 14:10:00,
2013-04-27 06:20:00,21.3,13.0,30.13,NE,54,2.0,2.0,70,0.00,,,0.00,Wunderground v.1.15,2013-04-27 14:20:00,
2013-04-27 06:30:00,21.6,13.3,30.14,NNE,25,2.0,7.0,70,0.00,,,0.00,Wunderground v.1.15,2013-04-27 14:30:00,
2013-04-27 06:40:00,22.2,13.2,30.14,NNE,29,6.0,6.0,68,0.00,,,0.00,Wunderground v.1.15,2013-04-27 14:40:00,
2013-04-27 06:46:00,21.8,13.2,30.14,NE,42,6.0,6.0,69,0.00,,,0.00,Wunderground v.1.15,2013-04-27 14:46:00,
2013-04-27 06:56:00,20.6,12.4,30.14,East,94,2.0,5.0,70,0.00,,,0.00,Wunderground v.1.15,2013-04-27 14:56:00,
2013-04-27 07:06:00,21.0,12.7,30.14,North,354,5.0,6.0,70,0.00,,,0.00,Wunderground v.1.15,2013-04-27 15:06:00,
2013-04-27 07:15:00,21.8,12.9,30.15,NW,313,7.0,12.0,68,0.00,,,0.00,Wunderground v.1.15,2013-04-27 15:15:00,
2013-04-27 07:25:00,22.9,13.2,30.15,NNW,328,7.0,8.0,66,0.00,,,0.00,Wunderground v.1.15,2013-04-27 15:25:00,
2013-04-27 07:35:00,23.9,13.5,30.16,NW,321,7.0,9.0,64,0.00,,,0.00,Wunderground v.1.15,2013-04-27 15:35:00,
2013-04-27 07:45:00,23.3,13.3,30.17,North,349,6.0,8.0,65,0.00,,,0.00,Wunderground v.1.15,2013-04-27 15:45:00,
2013-04-27 07:55:00,23.9,13.5,30.17,NNW,344,2.0,4.0,64,0.00,,,0.00,Wunderground v.1.15,2013-04-27 15:55:00,
2013-04-27 08:05:00,25.4,13.8,30.17,NNE,25,1.0,4.0,61,0.00,,,0.00,Wunderground v.1.15,2013-04-27 16:05:00,
2013-04-27 08:15:00,26.3,13.9,30.17,ESE,112,6.0,10.0,59,0.00,,,0.00,Wunderground v.1.15,2013-04-27 16:15:00,
2013-04-27 08:25:00,25.6,14.0,30.17,East,94,9.0,9.0,61,0.00,,,0.00,Wunderground v.1.15,2013-04-27 16:25:00,
2013-04-27 08:35:00,23.9,12.8,30.18,ESE,122,11.0,16.0,62,0.00,,,0.00,Wunderground v.1.15,2013-04-27 16:35:00,
2013-04-27 08:45:00,24.7,13.9,30.17,East,95,16.0,20.0,63,0.00,,,0.00,Wunderground v.1.15,2013-04-27 16:45:00,
2013-04-27 08:55:00,27.2,14.8,30.17,ESE,102,14.0,17.0,59,0.00,,,0.00,Wunderground v.1.15,2013-04-27 16:55:00,
2013-04-27 09:05:00,26.6,14.2,30.19,NE,49,10.0,12.0,59,0.00,,,0.00,Wunderground v.1.15,2013-04-27 17:05:00,
2013-04-27 09:15:00,28.1,15.2,30.19,NNE,20,10.0,13.0,58,0.00,,,0.00,Wunderground v.1.15,2013-04-27 17:15:00,
2013-04-27 09:25:00,26.9,15.2,30.19,NNE,22,11.0,12.0,61,0.00,,,0.00,Wunderground v.1.15,2013-04-27 17:25:00,
2013-04-27 09:30:00,26.7,14.7,30.22,NNE,20,9.0,9.0,60,0.00,,,0.00,Wunderground v.1.15,2013-04-27 17:30:00,
2013-04-27 09:40:00,26.0,15.1,30.22,NE,40,9.0,9.0,63,0.00,,,0.00,Wunderground v.1.15,2013-04-27 17:40:00,
2013-04-27 09:45:00,26.3,15.8,30.20,NE,54,8.0,9.0,64,0.00,,,0.00,Wunderground v.1.15,2013-04-27 17:45:00,
2013-04-27 09:55:00,26.1,15.6,30.20,NNE,22,7.0,14.0,64,0.00,,,0.00,Wunderground v.1.15,2013-04-27 17:55:00,
2013-04-27 10:05:00,27.3,16.0,30.21,ENE,67,10.0,10.0,62,0.00,,,0.00,Wunderground v.1.15,2013-04-27 18:05:00,
2013-04-27 10:15:00,26.9,16.3,30.22,NE,47,7.0,11.0,64,0.00,,,0.00,Wunderground v.1.15,2013-04-27 18:15:00,
2013-04-27 10:25:00,26.6,16.1,30.22,NE,36,7.0,7.0,64,0.00,,,0.00,Wunderground v.1.15,2013-04-27 18:25:00,
2013-04-27 10:35:00,25.8,16.3,30.22,NNE,22,9.0,11.0,67,0.00,,,0.00,Wunderground v.1.15,2013-04-27 18:35:00,
2013-04-27 10:45:00,24.8,15.0,30.23,NNE,26,13.0,13.0,66,0.00,,,0.00,Wunderground v.1.15,2013-04-27 18:45:00,
2013-04-27 10:55:00,26.1,15.9,30.23,ENE,67,8.0,13.0,65,0.00,,,0.00,Wunderground v.1.15,2013-04-27 18:55:00,
2013-04-27 11:05:00,25.8,16.3,30.24,ENE,76,8.0,14.0,67,0.00,,,0.00,Wunderground v.1.15,2013-04-27 19:05:00,
2013-04-27 11:15:00,25.8,16.3,30.24,ENE,64,10.0,13.0,67,0.00,,,0.00,Wunderground v.1.15,2013-04-27 19:15:00,
2013-04-27 11:25:00,25.8,17.0,30.24,ENE,74,12.0,12.0,69,0.00,,,0.00,Wunderground v.1.15,2013-04-27 19:25:00,
2013-04-27 11:35:00,26.6,16.8,30.25,ENE,76,11.0,14.0,66,0.00,,,0.00,Wunderground v.1.15,2013-04-27 19:35:00,
2013-04-27 11:40:00,27.0,17.5,30.25,East,80,11.0,11.0,67,0.00,,,0.00,Wunderground v.1.15,2013-04-27 19:40:00,
2013-04-27 11:50:00,27.6,18.1,30.24,ENE,67,12.0,12.0,67,0.00,,,0.00,Wunderground v.1.15,2013-04-27 19:50:00,
2013-04-27 11:55:00,28.1,18.5,30.24,ENE,64,10.0,12.0,67,0.00,,,0.00,Wunderground v.1.15,2013-04-27 19:55:00,
2013-04-27 12:05:00,27.0,17.1,30.25,ENE,68,10.0,13.0,66,0.00,,,0.00,Wunderground v.1.15,2013-04-27 20:05:00,
2013-04-27 12:15:00,27.6,18.1,30.25,NE,56,9.0,12.0,67,0.00,,,0.00,Wunderground v.1.15,2013-04-27 20:15:00,
2013-04-27 12:25:00,27.0,17.5,30.25,East,83,12.0,12.0,67,0.00,,,0.00,Wunderground v.1.15,2013-04-27 20:25:00,
2013-04-27 12:30:00,27.0,17.5,30.26,ENE,59,11.0,11.0,67,0.00,,,0.00,Wunderground v.1.15,2013-04-27 20:30:00,
2013-04-27 12:40:00,27.0,17.1,30.26,NE,50,9.0,14.0,66,0.00,,,0.00,Wunderground v.1.15,2013-04-27 20:40:00,
2013-04-27 12:50:00,27.8,17.6,30.26,ENE,64,9.0,12.0,65,0.00,,,0.00,Wunderground v.1.15,2013-04-27 20:50:00,
2013-04-27 12:59:00,27.8,17.9,30.25,NNE,33,11.0,11.0,66,0.00,,,0.00,Wunderground v.1.15,2013-04-27 20:59:00,
2013-04-27 13:04:00,27.9,18.7,30.25,East,81,10.0,11.0,68,0.00,,,0.00,Wunderground v.1.15,2013-04-27 21:04:00,
2013-04-27 13:14:00,28.5,18.6,30.25,ENE,71,8.0,10.0,66,0.00,,,0.00,Wunderground v.1.15,2013-04-27 21:14:00,
2013-04-27 13:20:00,28.8,18.5,30.25,ENE,66,7.0,7.0,65,0.00,,,0.00,Wunderground v.1.15,2013-04-27 21:20:00,
2013-04-27 13:30:00,29.5,19.2,30.26,NE,42,6.0,6.0,65,0.00,,,0.00,Wunderground v.1.15,2013-04-27 21:30:00,
2013-04-27 13:40:00,29.8,18.4,30.26,NE,35,6.0,6.0,62,0.00,,,0.00,Wunderground v.1.15,2013-04-27 21:40:00,
2013-04-27 13:50:00,31.6,20.1,30.26,South,187,3.0,5.0,62,0.00,,,0.00,Wunderground v.1.15,2013-04-27 21:50:00,
2013-04-27 14:00:00,31.0,19.1,30.26,South,184,2.0,2.0,61,0.00,,,0.00,Wunderground v.1.15,2013-04-27 22:00:00,
2013-04-27 14:10:00,33.1,19.9,30.26,South,184,0.0,0.0,58,0.00,,,0.00,Wunderground v.1.15,2013-04-27 22:10:00,
2013-04-27 14:20:00,34.4,19.9,30.27,South,184,0.0,0.0,55,0.00,,,0.00,Wunderground v.1.15,2013-04-27 22:20:00,
2013-04-27 14:25:00,34.7,20.2,30.27,South,184,0.0,3.0,55,0.00,,,0.00,Wunderground v.1.15,2013-04-27 22:25:00,
2013-04-27 14:35:00,33.8,20.6,30.27,South,181,1.0,1.0,58,0.00,,,0.00,Wunderground v.1.15,2013-04-27 22:35:00,
2013-04-27 14:45:00,34.3,20.2,30.27,South,181,0.0,0.0,56,0.00,,,0.00,Wunderground v.1.15,2013-04-27 22:45:00,
2013-04-27 14:55:00,34.3,20.6,30.27,South,181,0.0,0.0,57,0.00,,,0.00,Wunderground v.1.15,2013-04-27 22:55:00,
2013-04-27 15:05:00,34.9,20.4,30.27,South,181,0.0,1.0,55,0.00,,,0.00,Wunderground v.1.15,2013-04-27 23:05:00,
2013-04-27 15:15:00,32.1,19.4,30.27,NW,320,1.0,3.0,59,0.00,,,0.00,Wunderground v.1.15,2013-04-27 23:15:00,
2013-04-27 15:25:00,32.7,19.5,30.27,NW,324,1.0,5.0,58,0.00,,,0.00,Wunderground v.1.15,2013-04-27 23:25:00,
2013-04-27 15:30:00,31.9,18.8,30.28,NW,325,2.0,2.0,58,0.00,,,0.00,Wunderground v.1.15,2013-04-27 23:30:00,
2013-04-27 15:40:00,33.5,20.3,30.28,NW,325,0.0,1.0,58,0.00,,,0.00,Wunderground v.1.15,2013-04-27 23:40:00,
2013-04-27 15:50:00,34.0,20.8,30.28,NW,307,1.0,1.0,58,0.00,,,0.00,Wunderground v.1.15,2013-04-27 23:50:00,
2013-04-27 15:55:00,34.0,19.9,30.28,NW,307,1.0,1.0,56,0.00,,,0.00,Wunderground v.1.15,2013-04-27 23:55:00,
2013-04-27 16:05:00,33.5,20.7,30.28,WSW,255,1.0,3.0,59,0.00,,,0.00,Wunderground v.1.15,2013-04-28 00:05:00,
2013-04-27 16:15:00,32.5,20.9,30.29,SW,222,4.0,5.0,62,0.00,,,0.00,Wunderground v.1.15,2013-04-28 00:15:00,
2013-04-27 16:25:00,33.1,21.5,30.29,WSW,258,4.0,5.0,62,0.00,,,0.00,Wunderground v.1.15,2013-04-28 00:25:00,
2013-04-27 16:35:00,32.5,19.7,30.28,NNW,347,5.0,6.0,59,0.00,,,0.00,Wunderground v.1.15,2013-04-28 00:35:00,
2013-04-27 16:45:00,33.5,19.9,30.28,NNW,347,1.0,3.0,57,0.00,,,0.00,Wunderground v.1.15,2013-04-28 00:45:00,
2013-04-27 16:55:00,32.7,21.5,30.28,SSW,205,3.0,7.0,63,0.00,,,0.00,Wunderground v.1.15,2013-04-28 00:55:00,
2013-04-27 17:05:00,32.9,21.3,30.29,SW,235,4.0,5.0,62,0.00,,,0.00,Wunderground v.1.15,2013-04-28 01:05:00,
2013-04-27 17:15:00,33.8,22.5,30.29,SW,225,1.0,5.0,63,0.00,,,0.00,Wunderground v.1.15,2013-04-28 01:15:00,
2013-04-27 17:20:00,33.7,20.9,30.29,SSW,196,3.0,3.0,59,0.00,,,0.00,Wunderground v.1.15,2013-04-28 01:20:00,
2013-04-27 17:30:00,34.1,22.8,30.30,South,187,2.0,5.0,63,0.00,,,0.00,Wunderground v.1.15,2013-04-28 01:30:00,
2013-04-27 17:40:00,33.5,21.9,30.30,South,186,3.0,5.0,62,0.00,,,0.00,Wunderground v.1.15,2013-04-28 01:40:00,
2013-04-27 17:45:00,33.4,21.8,30.30,South,184,4.0,5.0,62,0.00,,,0.00,Wunderground v.1.15,2013-04-28 01:45:00,
2013-04-27 17:55:00,34.1,22.4,30.30,South,184,2.0,3.0,62,0.00,,,0.00,Wunderground v.1.15,2013-04-28 01:55:00,
2013-04-27 18:05:00,35.0,21.7,30.30,SSE,163,1.0,1.0,58,0.00,,,0.00,Wunderground v.1.15,2013-04-28 02:05:00,
2013-04-27 18:10:00,34.7,21.0,30.30,East,95,2.0,4.0,57,0.00,,,0.00,Wunderground v.1.15,2013-04-28 02:10:00,
2013-04-27 18:20:00,34.4,20.7,30.30,ENE,71,4.0,4.0,57,0.00,,,0.00,Wunderground v.1.15,2013-04-28 02:20:00,
2013-04-27 18:30:00,34.3,21.8,30.30,NE,49,4.0,4.0,60,0.00,,,0.00,Wunderground v.1.15,2013-04-28 02:30:00,
2013-04-27 18:40:00,34.0,21.2,30.30,ENE,64,5.0,8.0,59,0.00,,,0.00,Wunderground v.1.15,2013-04-28 02:40:00,
2013-04-27 18:50:00,32.9,21.3,30.30,ENE,71,7.0,13.0,62,0.00,,,0.00,Wunderground v.1.15,2013-04-28 02:50:00,
2013-04-27 19:00:00,31.6,20.4,30.30,ENE,70,11.0,12.0,63,0.00,,,0.00,Wunderground v.1.15,2013-04-28 03:00:00,
2013-04-27 19:10:00,31.5,21.1,30.30,ENE,71,10.0,10.0,65,0.00,,,0.00,Wunderground v.1.15,2013-04-28 03:10:00,
2013-04-27 19:15:00,31.2,20.1,30.30,East,95,10.0,12.0,63,0.00,,,0.00,Wunderground v.1.15,2013-04-28 03:15:00,
2013-04-27 19:25:00,31.8,21.4,30.30,ENE,70,8.0,12.0,65,0.00,,,0.00,Wunderground v.1.15,2013-04-28 03:25:00,
2013-04-27 19:35:00,30.9,20.9,30.31,ENE,76,10.0,10.0,66,0.00,,,0.00,Wunderground v.1.15,2013-04-28 03:35:00,
2013-04-27 19:40:00,30.6,20.2,30.31,ENE,77,9.0,13.0,65,0.00,,,0.00,Wunderground v.1.15,2013-04-28 03:40:00,
2013-04-27 19:50:00,29.7,20.4,30.31,ENE,66,8.0,8.0,68,0.00,,,0.00,Wunderground v.1.15,2013-04-28 03:50:00,
2013-04-27 20:00:00,29.4,20.1,30.31,NE,56,7.0,8.0,68,0.00,,,0.00,Wunderground v.1.15,2013-04-28 04:00:00,
2013-04-27 20:05:00,29.4,19.8,30.31,ENE,76,8.0,13.0,67,0.00,,,0.00,Wunderground v.1.15,2013-04-28 04:05:00,
2013-04-27 20:10:00,29.4,19.8,30.31,ENE,64,10.0,12.0,67,0.00,,,0.00,Wunderground v.1.15,2013-04-28 04:10:00,
2013-04-27 20:15:00,29.5,19.5,30.30,NE,54,9.0,12.0,66,0.00,,,0.00,Wunderground v.1.15,2013-04-28 04:15:00,
2013-04-27 20:20:00,30.3,20.3,30.30,ENE,76,6.0,6.0,66,0.00,,,0.00,Wunderground v.1.15,2013-04-28 04:20:00,
2013-04-27 20:30:00,31.5,20.7,30.31,ENE,59,5.0,7.0,64,0.00,,,0.00,Wunderground v.1.15,2013-04-28 04:30:00,
2013-04-27 20:35:00,31.8,21.4,30.31,NE,40,5.0,7.0,65,0.00,,,0.00,Wunderground v.1.15,2013-04-28 04:35:00,
2013-04-27 20:40:00,31.6,20.4,30.31,ENE,61,4.0,6.0,63,0.00,,,0.00,Wunderground v.1.15,2013-04-28 04:40:00,
2013-04-27 20:50:00,31.3,19.4,30.31,ENE,76,6.0,10.0,61,0.00,,,0.00,Wunderground v.1.15,2013-04-28 04:50:00,
2013-04-27 21:00:00,31.2,19.3,30.30,NE,40,6.0,6.0,61,0.00,,,0.00,Wunderground v.1.15,2013-04-28 05:00:00,
2013-04-27 21:05:00,31.0,19.5,30.30,ENE,60,4.0,6.0,62,0.00,,,0.00,Wunderground v.1.15,2013-04-28 05:05:00,
2013-04-27 21:15:00,30.6,19.5,30.30,ENE,64,3.0,3.0,63,0.00,,,0.00,Wunderground v.1.15,2013-04-28 05:15:00,
2013-04-27 21:25:00,30.1,19.4,30.30,ENE,61,3.0,6.0,64,0.00,,,0.00,Wunderground v.1.15,2013-04-28 05:25:00,
2013-04-27 21:30:00,29.8,19.8,30.31,NE,54,3.0,5.0,66,0.00,,,0.00,Wunderground v.1.15,2013-04-28 05:30:00,
2013-04-27 21:40:00,29.4,19.4,30.31,NE,37,5.0,5.0,66,0.00,,,0.00,Wunderground v.1.15,2013-04-28 05:40:00,
2013-04-27 21:50:00,29.1,18.1,30.30,NNE,29,6.0,7.0,63,0.00,,,0.00,Wunderground v.1.15,2013-04-28 05:50:00,
2013-04-27 22:00:00,28.7,18.8,30.30,NE,44,6.0,6.0,66,0.00,,,0.00,Wunderground v.1.15,2013-04-28 06:00:00,
2013-04-27 22:05:00,28.5,18.9,30.30,ENE,60,4.0,6.0,67,0.00,,,0.00,Wunderground v.1.15,2013-04-28 06:05:00,
2013-04-27 22:15:00,27.8,18.6,30.30,NE,47,3.0,4.0,68,0.00,,,0.00,Wunderground v.1.15,2013-04-28 06:15:00,
2013-04-27 22:25:00,27.0,17.8,30.30,ENE,67,4.0,5.0,68,0.00,,,0.00,Wunderground v.1.15,2013-04-28 06:25:00,
2013-04-27 22:35:00,26.6,18.1,30.30,ENE,74,3.0,4.0,70,0.00,,,0.00,Wunderground v.1.15,2013-04-28 06:35:00,
2013-04-27 22:45:00,26.3,17.8,30.30,ENE,60,3.0,3.0,70,0.00,,,0.00,Wunderground v.1.15,2013-04-28 06:45:00,
2013-04-27 22:55:00,25.4,17.9,30.30,ENE,59,3.0,3.0,73,0.00,,,0.00,Wunderground v.1.15,2013-04-28 06:55:00,
2013-04-27 23:00:00,25.0,17.6,30.31,ENE,64,2.0,2.0,73,0.00,,,0.00,Wunderground v.1.15,2013-04-28 07:00:00,
2013-04-27 23:10:00,24.7,17.6,30.31,ENE,63,2.0,2.0,74,0.00,,,0.00,Wunderground v.1.15,2013-04-28 07:10:00,
2013-04-27 23:15:00,24.5,17.7,30.31,ENE,61,1.0,2.0,75,0.00,,,0.00,Wunderground v.1.15,2013-04-28 07:15:00,
2013-04-27 23:25:00,24.4,17.6,30.31,ENE,63,1.0,1.0,75,0.00,,,0.00,Wunderground v.1.15,2013-04-28 07:25:00,
2013-04-27 23:34:00,24.2,17.1,30.31,ENE,63,0.0,0.0,74,0.00,,,0.00,Wunderground v.1.15,2013-04-28 07:34:00,
2013-04-27 23:40:00,23.9,16.8,30.31,NE,52,1.0,3.0,74,0.00,,,0.00,Wunderground v.1.15,2013-04-28 07:40:00,
2013-04-27 23:50:00,23.3,16.9,30.31,North,11,3.0,3.0,76,0.00,,,0.00,Wunderground v.1.15,2013-04-28 07:50:00,